Time;durP1;ratioP1;P1;durP2;ratioP2;P2;SDS_P1;SDS_P2;PMS_P1;PMS_P2;Temp;Humidity;BMP_temperature;BMP_pressure;BME280_temperature;BME280_humidity;BME280_pressure;Samples;Min_cycle;Max_cycle;Signal;HPM_P1;HPM_P2
2023/06/29 00:01:00;;;;;;;7.10;3.15;;;;;;;;;;4934106;29;20505;-76
2023/06/29 00:03:27;;;;;;;5.03;3.03;;;;;;;;;;4935506;29;20046;-79
2023/06/29 00:05:55;;;;;;;6.15;3.13;;;;;;;;;;4935801;29;20134;-79
2023/06/29 00:08:24;;;;;;;5.40;3.00;;;;;;;;;;4935891;28;20040;-78
2023/06/29 00:10:51;;;;;;;6.93;3.13;;;;;;;;;;4935117;29;20035;-79
2023/06/29 00:13:17;;;;;;;4.95;3.03;;;;;;;;;;4936761;29;20027;-79
2023/06/29 00:15:43;;;;;;;3.90;2.85;;;;;;;;;;4936614;29;20502;-79
2023/06/29 00:18:09;;;;;;;4.60;2.83;;;;;;;;;;4936460;29;20047;-78
2023/06/29 00:20:35;;;;;;;4.63;3.05;;;435.50;2355.20;;;;;;4937239;29;20035;-79
2023/06/29 00:23:01;;;;;;;5.03;3.10;;;;;;;;;;4935944;28;20552;-79
2023/06/29 00:25:27;;;;;;;5.57;2.97;;;;;;;;;;4931411;29;20023;-80
2023/06/29 00:27:54;;;;;;;4.72;3.17;;;;;;;;;;4937853;29;20039;-79
2023/06/29 00:30:20;;;;;;;5.20;3.30;;;;;;;;;;4936794;29;20035;-80
2023/06/29 00:32:46;;;;;;;4.15;3.15;;;;;;;;;;4938669;29;20078;-79
2023/06/29 00:35:13;;;;;;;4.65;3.08;;;;;;;;;;4939881;29;20023;-80
2023/06/29 00:37:42;;;;;;;7.90;3.05;;;;;;;;;;4952171;29;20489;-78
2023/06/29 00:40:09;;;;;;;4.88;3.13;;;;;;;;;;4935786;28;20156;-80
2023/06/29 00:42:35;;;;;;;4.45;2.95;;;;;;;;;;4936694;29;20028;-79
2023/06/29 00:45:02;;;;;;;5.10;3.05;;;;;;;;;;4935842;29;20095;-79
2023/06/29 00:47:28;;;;;;;4.55;2.92;;;;;;;;;;4943266;29;20119;-80
2023/06/29 00:49:55;;;;;;;5.53;3.00;;;;;;;;;;4934913;29;20024;-79
2023/06/29 00:52:21;;;;;;;4.05;2.85;;;;;;;;;;4938667;29;20036;-79
2023/06/29 00:54:48;;;;;;;5.05;3.10;;;;;;;;;;4949740;28;20031;-80
2023/06/29 00:57:14;;;;;;;6.03;3.08;;;;;;;;;;4939748;29;20035;-80
2023/06/29 00:59:40;;;;;;;6.20;3.22;;;;;;;;;;4943442;29;20123;-78
2023/06/29 01:02:08;;;;;;;6.20;2.90;;;;;;;;;;4940491;29;20046;-79
2023/06/29 01:04:36;;;;;;;6.82;3.13;;;;;;;;;;4942606;29;20075;-78
2023/06/29 01:07:15;;;;;;;5.90;3.17;;;410.40;2355.20;;;;;;4935207;29;20034;-78
2023/06/29 01:09:44;;;;;;;3.70;2.88;;;410.10;2099.20;;;;;;4951992;29;20098;-78
2023/06/29 01:12:13;;;;;;;5.30;3.08;;;410.20;2048.00;;;;;;4935548;29;20374;-78
2023/06/29 01:14:40;;;;;;;3.80;2.70;;;410.00;2355.20;;;;;;4935197;29;20027;-79
2023/06/29 01:17:11;;;;;;;6.53;3.30;;;410.10;2355.20;;;;;;4934922;29;20118;-79
2023/06/29 01:19:38;;;;;;;4.70;3.10;;;410.00;2355.20;;;;;;4934787;29;20047;-79
2023/06/29 01:22:37;;;;;;;6.18;3.00;;;409.90;2329.60;;;;;;4936647;29;20103;-80
2023/06/29 01:25:03;;;;;;;6.07;2.80;;;409.90;2073.60;;;;;;4903039;29;20080;-80
2023/06/29 01:27:29;;;;;;;4.55;3.10;;;409.90;2073.60;;;;;;4908810;29;21678;-79
2023/06/29 01:29:55;;;;;;;4.07;3.20;;;409.90;2124.80;;;;;;4900340;29;20088;-78
2023/06/29 01:32:28;;;;;;;4.25;2.80;;;409.90;2124.80;;;;;;4894382;29;20494;-79
2023/06/29 01:34:54;;;;;;;3.97;2.97;;;409.90;2355.20;;;;;;4895007;29;20036;-78
2023/06/29 01:37:25;;;;;;;4.45;3.10;;;409.90;2073.60;;;;;;4894911;29;20444;-78
2023/06/29 01:40:00;;;;;;;5.13;3.10;;;409.90;2099.20;;;;;;4896349;29;20475;-79
2023/06/29 01:42:28;;;;;;;5.03;3.00;;;409.90;2124.80;;;;;;4902043;29;20123;-79
2023/06/29 01:44:54;;;;;;;5.45;3.38;;;409.90;2201.60;;;;;;4909765;29;20051;-80
2023/06/29 01:47:21;;;;;;;6.32;3.13;;;409.90;2252.80;;;;;;4899761;29;20406;-78
2023/06/29 01:49:48;;;;;;;3.53;2.92;;;409.90;2304.00;;;;;;4894199;29;20478;-79
2023/06/29 01:52:14;;;;;;;6.22;3.20;;;409.90;2355.20;;;;;;4897254;29;20103;-77
2023/06/29 01:54:40;;;;;;;4.00;3.03;;;409.90;2355.20;;;;;;4902078;29;20055;-78
2023/06/29 01:57:07;;;;;;;3.60;2.95;;;409.90;2355.20;;;;;;4910351;29;20148;-79
2023/06/29 01:59:33;;;;;;;5.22;3.05;;;410.00;2355.20;;;;;;4894329;29;20419;-77
2023/06/29 02:01:59;;;;;;;4.78;2.92;;;;;;;;;;4924520;29;20099;-78
2023/06/29 02:04:26;;;;;;;6.55;3.20;;;;;;;;;;4934307;29;20063;-77
2023/06/29 02:06:52;;;;;;;4.93;3.30;;;;;;;;;;4942031;29;20027;-79
2023/06/29 02:09:18;;;;;;;4.07;3.20;;;;;;;;;;4936990;29;20102;-80
2023/06/29 02:11:44;;;;;;;5.22;3.75;;;;;;;;;;4944719;29;20107;-80
2023/06/29 02:14:10;;;;;;;6.60;3.78;;;;;;;;;;4943672;29;20031;-80
2023/06/29 02:16:36;;;;;;;4.35;3.30;;;;;;;;;;4933018;29;20090;-79
2023/06/29 02:19:02;;;;;;;6.30;3.45;;;;;;;;;;4932366;29;20074;-79
2023/06/29 02:21:28;;;;;;;5.43;3.70;;;;;;;;;;4933339;28;20046;-79
2023/06/29 02:23:54;;;;;;;5.85;3.60;;;;;;;;;;4934259;29;20028;-80
2023/06/29 02:26:20;;;;;;;4.90;3.63;;;;;;;;;;4934309;29;20028;-80
2023/06/29 02:28:48;;;;;;;4.80;3.63;;;;;;;;;;4934451;29;20028;-78
2023/06/29 02:31:14;;;;;;;7.47;3.65;;;;;;;;;;4933302;29;20118;-78
2023/06/29 02:33:41;;;;;;;5.38;3.60;;;;;;;;;;4932718;29;20023;-79
2023/06/29 02:36:07;;;;;;;3.90;3.50;;;;;;;;;;4945174;29;20082;-78
2023/06/29 02:38:33;;;;;;;6.03;3.50;;;;;;;;;;4952922;29;20028;-79
2023/06/29 02:40:59;;;;;;;5.82;3.40;;;;;;;;;;4944391;29;20026;-78
2023/06/29 02:43:25;;;;;;;6.07;4.03;;;;;;;;;;4944559;29;20413;-79
2023/06/29 02:45:51;;;;;;;7.05;4.10;;;;;;;;;;4950641;29;20030;-79
2023/06/29 02:48:17;;;;;;;6.22;4.05;;;;;;;;;;4944307;29;20023;-79
2023/06/29 02:50:43;;;;;;;5.93;4.10;;;;;;;;;;4937924;29;20038;-78
2023/06/29 02:53:11;;;;;;;6.15;4.03;;;;;;;;;;4933278;29;20032;-79
2023/06/29 02:55:37;;;;;;;7.72;4.25;;;;;;;;;;4933546;29;20032;-78
2023/06/29 02:58:04;;;;;;;4.43;3.75;;;;;;;;;;4950081;28;20043;-79
2023/06/29 03:00:30;;;;;;;5.60;3.80;;;;;;;;;;4933211;29;20401;-79
2023/06/29 03:02:56;;;;;;;6.43;3.65;;;;;;;;;;4933362;29;20485;-79
2023/06/29 03:05:22;;;;;;;7.78;4.15;;;;;;;;;;4962677;28;20044;-79
2023/06/29 03:07:48;;;;;;;6.10;3.80;;;;;;;;;;4948902;28;20174;-79
2023/06/29 03:10:14;;;;;;;7.70;4.22;;;;;;;;;;4935052;29;20027;-80
2023/06/29 03:12:41;;;;;;;4.50;3.75;;;;;;;;;;4937219;29;20363;-79
2023/06/29 03:15:07;;;;;;;5.75;4.10;;;;;;;;;;4941910;29;20036;-78
2023/06/29 03:17:33;;;;;;;7.25;3.80;;;;;;;;;;4935905;29;20065;-79
2023/06/29 03:19:59;;;;;;;5.70;3.72;;;;;;;;;;4946735;28;20082;-80
2023/06/29 03:22:26;;;;;;;6.78;3.67;;;;;;;;;;4939693;29;20474;-79
2023/06/29 03:24:52;;;;;;;5.40;3.78;;;;;;;;;;4940651;28;20020;-79
2023/06/29 03:27:18;;;;;;;5.50;3.78;;;;;;;;;;4937057;29;20397;-79
2023/06/29 03:29:44;;;;;;;6.15;3.80;;;;;;;;;;4936917;29;20385;-78
2023/06/29 03:32:10;;;;;;;6.50;3.78;;;;;;;;;;4936895;29;20459;-79
2023/06/29 03:34:36;;;;;;;4.78;3.92;;;;;;;;;;4963830;28;20545;-79
2023/06/29 03:37:03;;;;;;;6.65;3.80;;;;;;;;;;4953407;29;20039;-80
2023/06/29 03:39:29;;;;;;;6.18;3.90;;;;;;;;;;4941543;29;20112;-80
2023/06/29 03:41:55;;;;;;;4.88;3.80;;;;;;;;;;4954733;28;20034;-79
2023/06/29 03:44:21;;;;;;;6.05;3.47;;;;;;;;;;4938712;29;20110;-80
2023/06/29 03:46:48;;;;;;;4.93;3.45;;;;;;;;;;4985706;28;20097;-79
2023/06/29 03:49:14;;;;;;;5.45;3.45;;;;;;;;;;4972965;28;20040;-80
2023/06/29 03:51:40;;;;;;;8.63;3.60;;;;;;;;;;4967823;28;20035;-79
2023/06/29 03:54:06;;;;;;;6.32;3.78;;;;;;;;;;4937232;29;20060;-80
2023/06/29 03:56:32;;;;;;;3.90;3.22;;;;;;;;;;4963140;28;20080;-79
2023/06/29 03:58:59;;;;;;;5.72;3.53;;;;;;;;;;4920264;29;20042;-79
2023/06/29 04:01:25;;;;;;;3.78;3.15;;;;;;;;;;4968167;28;20698;-77
2023/06/29 04:03:51;;;;;;;4.63;3.30;;;;;;;;;;4951311;29;20048;-79
2023/06/29 04:06:17;;;;;;;4.47;3.40;;;;;;;;;;4936812;29;20122;-77
2023/06/29 04:08:43;;;;;;;5.07;3.20;;;;;;;;;;4936759;29;20118;-78
2023/06/29 04:11:09;;;;;;;4.30;3.00;;;;;;;;;;4936547;29;20413;-79
2023/06/29 04:13:36;;;;;;;4.78;3.28;;;;;;;;;;4937091;29;20433;-79
2023/06/29 04:16:02;;;;;;;4.63;3.20;;;;;;;;;;4936783;29;20058;-79
2023/06/29 04:18:28;;;;;;;5.00;3.10;;;;;;;;;;4936490;29;20043;-79
2023/06/29 04:20:54;;;;;;;3.67;2.72;;;;;;;;;;4936761;29;20027;-80
2023/06/29 04:23:20;;;;;;;6.65;3.50;;;;;;;;;;4936609;29;20501;-82
2023/06/29 04:25:46;;;;;;;7.05;3.30;;;;;;;;;;4936757;29;20474;-79
2023/06/29 04:28:12;;;;;;;4.80;2.78;;;;;;;;;;4935267;29;20107;-79
2023/06/29 04:30:42;;;;;;;5.07;3.05;;;;;;;;;;4935953;29;20016;-80
2023/06/29 04:33:13;;;;;;;7.75;3.33;;;;;;;;;;4936519;29;20031;-79
2023/06/29 04:35:39;;;;;;;5.80;2.97;;;;;;;;;;4936723;29;20026;-80
2023/06/29 04:38:06;;;;;;;4.72;2.90;;;;;;;;;;4950714;29;20514;-80
2023/06/29 04:40:32;;;;;;;6.47;3.28;;;;;;;;;;4936210;29;20066;-79
2023/06/29 04:42:58;;;;;;;9.02;3.47;;;;;;;;;;4936483;28;20075;-80
2023/06/29 04:45:24;;;;;;;6.57;2.92;;;;;;;;;;4965856;28;20031;-81
2023/06/29 04:47:50;;;;;;;8.52;3.33;;;;;;;;;;4924775;29;20031;-79
2023/06/29 04:50:24;;;;;;;4.53;3.10;;;;;;;;;;4920764;29;20082;-79
2023/06/29 04:52:50;;;;;;;4.28;3.00;;;;;;;;;;4935430;29;20135;-81
2023/06/29 04:55:16;;;;;;;4.93;3.50;;;;;;;;;;4935952;28;20020;-78
2023/06/29 04:57:42;;;;;;;5.90;3.22;;;;;;;;;;4935812;29;20043;-79
2023/06/29 05:00:24;;;;;;;6.25;3.22;;;;;;;;;;4965843;28;20035;-79
2023/06/29 05:02:50;;;;;;;7.10;3.40;;;;;;;;;;4947460;29;20052;-79
2023/06/29 05:05:16;;;;;;;5.88;3.10;;;;;;;;;;4955489;28;20047;-79
2023/06/29 05:07:42;;;;;;;4.82;3.00;;;;;;;;;;4934049;29;20032;-79
2023/06/29 05:10:08;;;;;;;4.80;2.85;;;;;;;;;;4933953;28;20031;-79
2023/06/29 05:12:34;;;;;;;5.95;3.00;;;;;;;;;;4934522;28;20024;-79
2023/06/29 05:15:01;;;;;;;6.68;3.08;;;;;;;;;;4934040;28;20036;-78
2023/06/29 05:17:27;;;;;;;7.10;3.22;;;;;;;;;;4925820;29;20036;-78
2023/06/29 05:19:54;;;;;;;7.72;3.00;;;;;;;;;;4933980;28;20035;-77
2023/06/29 05:22:20;;;;;;;5.50;3.15;;;;;;;;;;4934475;28;20050;-78
2023/06/29 05:24:46;;;;;;;3.83;2.85;;;;;;;;;;4933686;28;20079;-78
2023/06/29 05:27:12;;;;;;;4.78;2.83;;;;;;;;;;4935018;29;20030;-79
2023/06/29 05:29:38;;;;;;;6.55;2.88;;;;;;;;;;4935066;28;20122;-78
2023/06/29 05:32:04;;;;;;;5.03;3.10;;;;;;;;;;4935016;28;20058;-78
2023/06/29 05:34:30;;;;;;;5.53;3.05;;;;;;;;;;4932617;28;20497;-77
2023/06/29 05:36:56;;;;;;;5.78;3.20;;;;;;;;;;4934261;29;20042;-77
2023/06/29 05:39:22;;;;;;;3.80;2.60;;;;;;;;;;4932301;28;20039;-82
2023/06/29 05:41:50;;;;;;;3.92;3.08;;;;;;;;;;4930244;29;20048;-79
2023/06/29 05:44:16;;;;;;;5.38;3.20;;;;;;;;;;4924687;29;20047;-85
2023/06/29 05:46:42;;;;;;;4.13;2.90;;;;;;;;;;4964535;28;20031;-79
2023/06/29 05:49:08;;;;;;;5.88;3.15;;;;;;;;;;4923643;28;20549;-77
2023/06/29 05:51:34;;;;;;;5.00;2.83;;;;;;;;;;4950527;29;20040;-77
2023/06/29 05:54:00;;;;;;;5.60;2.85;;;;;;;;;;4934877;28;20107;-77
2023/06/29 05:56:28;;;;;;;5.78;2.85;;;;;;;;;;4934416;29;20110;-77
2023/06/29 05:58:54;;;;;;;5.07;2.72;;;;;;;;;;4936799;29;20482;-78
2023/06/29 06:01:20;;;;;;;5.43;2.97;;;;;;;;;;4929538;28;20099;-78
2023/06/29 06:03:46;;;;;;;5.20;2.90;;;;;;;;;;4920918;28;20040;-86
2023/06/29 06:06:12;;;;;;;6.07;2.70;;;;;;;;;;4921142;29;20028;-82
2023/06/29 06:08:38;;;;;;;6.13;2.70;;;;;;;;;;4934671;29;20028;-76
2023/06/29 06:11:05;;;;;;;3.88;2.72;;;;;;;;;;4934748;28;20043;-80
2023/06/29 06:13:31;;;;;;;5.43;2.85;;;;;;;;;;4936806;29;20478;-82
2023/06/29 06:15:57;;;;;;;4.35;2.95;;;;;;;;;;4935321;28;20502;-78
2023/06/29 06:18:23;;;;;;;4.43;2.70;;;;;;;;;;4934927;29;20039;-77
2023/06/29 06:20:49;;;;;;;4.78;2.72;;;;;;;;;;4949203;28;20060;-77
2023/06/29 06:23:16;;;;;;;5.22;2.67;;;;;;;;;;4936017;28;20027;-79
2023/06/29 06:25:42;;;;;;;3.95;2.70;;;;;;;;;;4934853;28;20378;-78
2023/06/29 06:28:08;;;;;;;5.18;2.65;;;;;;;;;;4918738;29;20036;-76
2023/06/29 06:30:34;;;;;;;4.63;2.65;;;;;;;;;;4946617;28;20517;-76
2023/06/29 06:33:01;;;;;;;4.85;2.80;;;;;;;;;;4933716;29;20489;-75
2023/06/29 06:35:28;;;;;;;4.88;2.80;;;537.80;2406.40;;;;;;4949091;28;20046;-76
2023/06/29 06:37:54;;;;;;;3.78;2.60;;;;;;;;;;4934351;29;20044;-74
2023/06/29 06:40:20;;;;;;;4.03;2.50;;;;;;;;;;4933197;29;20086;-83
2023/06/29 06:42:47;;;;;;;5.63;2.78;;;;;;;;;;4934389;29;20048;-75
2023/06/29 06:45:13;;;;;;;4.30;2.45;;;;;;;;;;4934066;28;20032;-76
2023/06/29 06:47:40;;;;;;;4.97;2.60;;;;;;;;;;4934563;29;20047;-80
2023/06/29 06:50:06;;;;;;;4.30;2.50;;;;;;;;;;4935095;29;20055;-79
2023/06/29 06:52:32;;;;;;;5.03;2.72;;;;;;;;;;4935431;28;20054;-78
2023/06/29 06:55:01;;;;;;;4.05;2.30;;;;;;;;;;4936476;29;20075;-81
2023/06/29 06:57:27;;;;;;;4.20;2.40;;;;;;;;;;4939331;28;20075;-83
2023/06/29 06:59:53;;;;;;;3.95;2.75;;;;;;;;;;4931592;29;20016;-81
2023/06/29 07:02:21;;;;;;;3.97;2.33;;;;;;;;;;4949888;28;20180;-79
2023/06/29 07:04:47;;;;;;;7.47;2.72;;;;;;;;;;4937159;29;20036;-82
2023/06/29 07:07:13;;;;;;;5.68;2.38;;;;;;;;;;4938542;28;20059;-79
2023/06/29 07:09:39;;;;;;;3.92;2.42;;;;;;;;;;4941110;29;20026;-80
2023/06/29 07:12:05;;;;;;;3.92;2.53;;;564.00;2432.00;;;;;;4940431;28;20039;-80
2023/06/29 07:14:31;;;;;;;3.75;2.58;;;564.00;2432.00;;;;;;4942849;29;20020;-80
2023/06/29 07:16:57;;;;;;;4.70;2.70;;;564.10;2432.00;;;;;;4933758;28;20040;-80
2023/06/29 07:19:23;;;;;;;5.10;2.75;;;564.10;2432.00;;;;;;4936250;29;20020;-80
2023/06/29 07:21:49;;;;;;;4.72;2.53;;;588.90;2432.00;;;;;;4950329;28;20047;-79
2023/06/29 07:24:15;;;;;;;4.82;2.45;;;589.20;2432.00;;;;;;4936559;29;20405;-78
2023/06/29 07:26:41;;;;;;;8.73;2.38;;;589.20;2432.00;;;;;;4934691;28;20036;-77
2023/06/29 07:29:07;;;;;;;4.70;2.45;;;589.30;2432.00;;;;;;4936865;29;20091;-77
2023/06/29 07:31:34;;;;;;;4.60;2.20;;;589.30;2432.00;;;;;;4917618;29;20062;-77
2023/06/29 07:34:00;;;;;;;4.80;2.45;;;589.30;2432.00;;;;;;4935578;29;20032;-80
2023/06/29 07:36:26;;;;;;;3.78;2.28;;;589.50;2432.00;;;;;;4924652;29;20022;-81
2023/06/29 07:38:52;;;;;;;3.40;2.30;;;589.50;2432.00;;;;;;4955180;29;20615;-79
2023/06/29 07:41:18;;;;;;;3.10;2.30;;;589.40;2432.00;;;;;;4943862;29;20031;-80
2023/06/29 07:43:54;;;;;;;6.18;2.53;;;589.40;2432.00;;;;;;4936333;28;20457;-79
2023/06/29 07:46:20;;;;;;;8.32;2.40;;;;;;;;;;4936785;29;20023;-80
2023/06/29 07:48:47;;;;;;;3.83;2.22;;;;;;;;;;4936003;28;20040;-81
2023/06/29 07:51:13;;;;;;;3.67;2.10;;;;;;;;;;4948899;28;20084;-80
2023/06/29 07:53:39;;;;;;;6.85;2.00;;;;;;;;;;4935413;28;20046;-81
2023/06/29 07:56:05;;;;;;;3.63;2.33;;;;;;;;;;4935826;29;20091;-80
2023/06/29 07:58:31;;;;;;;3.42;2.20;;;;;;;;;;4935671;28;20083;-81
2023/06/29 08:00:58;;;;;;;7.47;2.58;;;;;;;;;;4935920;29;20031;-81
2023/06/29 08:03:24;;;;;;;4.63;2.00;;;;;;;;;;4935509;28;20126;-81
2023/06/29 08:05:53;;;;;;;3.92;2.08;;;;;;;;;;4950410;28;20024;-81
2023/06/29 08:08:20;;;;;;;6.25;2.20;;;;;;;;;;4931632;28;20040;-78
2023/06/29 08:10:47;;;;;;;3.38;2.00;;;;;;;;;;4936905;28;20035;-79
2023/06/29 08:13:13;;;;;;;4.38;2.45;;;;;;;;;;4918502;29;20064;-78
2023/06/29 08:15:54;;;;;;;3.72;2.15;;;;;;;;;;4916998;29;20462;-81
2023/06/29 08:18:20;;;;;;;2.92;2.10;;;;;;;;;;4931601;28;20083;-81
2023/06/29 08:20:46;;;;;;;3.33;2.20;;;;;;;;;;4931535;29;20028;-81
2023/06/29 08:23:14;;;;;;;3.92;2.20;;;;;;;;;;4936165;28;20040;-81
2023/06/29 08:25:40;;;;;;;4.10;2.15;;;;;;;;;;4935489;28;20040;-81
2023/06/29 08:28:06;;;;;;;4.95;1.85;;;;;;;;;;4924669;29;20036;-79
2023/06/29 08:30:32;;;;;;;5.47;2.20;;;;;;;;;;4935737;29;20099;-82
2023/06/29 08:32:58;;;;;;;3.30;2.10;;;;;;;;;;4938795;28;20036;-84
2023/06/29 08:35:24;;;;;;;4.88;2.30;;;;;;;;;;4937195;28;20023;-79
2023/06/29 08:37:50;;;;;;;3.70;1.80;;;;;;;;;;4950831;28;20043;-84
2023/06/29 08:40:22;;;;;;;4.40;1.83;;;;;;;;;;4944172;29;20039;-81
2023/06/29 08:42:48;;;;;;;2.78;1.70;;;;;;;;;;4937975;29;20110;-82
2023/06/29 08:45:14;;;;;;;2.60;1.88;;;;;;;;;;4936993;29;20092;-88
2023/06/29 08:47:42;;;;;;;3.00;1.80;;;;;;;;;;4952203;29;20397;-82
2023/06/29 08:50:09;;;;;;;2.70;1.73;;;;;;;;;;4937521;29;20091;-84
2023/06/29 08:52:36;;;;;;;2.95;1.80;;;;;;;;;;4938738;29;20149;-85
2023/06/29 08:55:02;;;;;;;3.33;1.80;;;;;;;;;;4937536;29;20027;-78
2023/06/29 08:57:32;;;;;;;3.92;1.70;;;;;;;;;;4936315;29;20047;-84
2023/06/29 08:59:59;;;;;;;2.97;1.70;;;;;;;;;;4938400;29;20034;-83
2023/06/29 09:02:25;;;;;;;4.43;1.77;;;;;;;;;;4937932;29;20047;-86
2023/06/29 09:04:51;;;;;;;3.30;1.92;;;;;;;;;;4937031;29;20087;-83
2023/06/29 09:07:18;;;;;;;3.85;1.80;;;;;;;;;;4936565;29;20019;-78
2023/06/29 09:09:44;;;;;;;4.07;1.73;;;;;;;;;;4937167;29;20028;-82
2023/06/29 09:12:10;;;;;;;3.85;1.80;;;;;;;;;;4936394;29;20044;-80
2023/06/29 09:14:45;;;;;;;4.82;1.70;;;;;;;;;;4959433;28;20024;-86
2023/06/29 09:17:21;;;;;;;3.28;1.70;;;;;;;;;;4921758;29;20189;-84
2023/06/29 09:19:51;;;;;;;3.28;1.50;;;;;;;;;;4938666;29;20079;-83
2023/06/29 09:22:18;;;;;;;2.35;1.50;;;717.40;1612.80;;;;;;4959520;28;20078;-86
2023/06/29 09:24:45;;;;;;;2.88;1.63;;;;;;;;;;4947049;29;20034;-85
2023/06/29 09:27:11;;;;;;;2.55;1.60;;;717.10;1587.20;;;;;;4948197;29;20031;-84
2023/06/29 09:29:39;;;;;;;2.60;1.65;;;716.80;1638.40;;;;;;4944575;29;20027;-86
2023/06/29 09:32:13;;;;;;;2.55;1.35;;;717.10;1561.60;;;;;;4949749;28;20030;-84
2023/06/29 09:34:46;;;;;;;2.50;1.58;;;717.00;1561.60;;;;;;4936985;29;20039;-82
2023/06/29 09:37:15;;;;;;;2.43;1.53;;;717.10;1561.60;;;;;;4944931;29;20076;-79
2023/06/29 09:40:12;;;;;;;4.30;2.05;;;;;;;;;;4937668;29;20036;-86
2023/06/29 09:42:38;;;;;;;3.38;1.52;;;;;;;;;;4932105;29;20034;-85
2023/06/29 09:45:16;;;;;;;3.63;1.70;;;;;;;;;;4950911;29;20042;-79
2023/06/29 09:47:49;;;;;;;4.63;1.30;;;;;;;;;;4938913;28;20088;-78
2023/06/29 09:50:20;;;;;;;3.42;1.50;;;;;;;;;;4934169;29;20035;-83
2023/06/29 09:52:51;;;;;;;3.53;1.63;;;;;;;;;;4932944;28;20023;-85
2023/06/29 09:55:17;;;;;;;4.65;1.80;;;;;;;;;;4941317;29;20035;-83
2023/06/29 09:57:50;;;;;;;3.78;1.60;;;;;;;;;;4928584;29;20166;-81
2023/06/29 10:00:17;;;;;;;5.22;1.70;;;;;;;;;;4940182;29;20207;-80
2023/06/29 10:02:43;;;;;;;2.72;1.40;;;;;;;;;;4931911;29;20028;-80
2023/06/29 10:05:10;;;;;;;2.83;1.40;;;;;;;;;;4938205;28;20058;-82
2023/06/29 10:07:37;;;;;;;2.72;1.70;;;;;;;;;;4935908;29;20035;-83
2023/06/29 10:10:07;;;;;;;3.28;1.70;;;;;;;;;;4935485;29;20466;-83
2023/06/29 10:12:33;;;;;;;6.75;1.92;;;;;;;;;;4933920;29;20043;-81
2023/06/29 10:15:08;;;;;;;3.42;1.60;;;;;;;;;;4935574;29;20024;-82
2023/06/29 10:17:37;;;;;;;2.88;1.63;;;;;;;;;;4935178;29;20051;-83
2023/06/29 10:20:04;;;;;;;3.38;1.60;;;;;;;;;;4935704;29;20031;-80
2023/06/29 10:22:31;;;;;;;4.35;1.63;;;;;;;;;;4950052;29;20490;-80
2023/06/29 10:24:59;;;;;;;3.15;1.60;;;;;;;;;;4949060;28;20028;-83
2023/06/29 10:27:26;;;;;;;3.47;1.70;;;;;;;;;;4935532;29;20027;-83
2023/06/29 10:29:53;;;;;;;5.35;1.73;;;;;;;;;;4938094;29;20047;-85
2023/06/29 10:32:35;;;;;;;3.00;1.60;;;;;;;;;;4931234;29;20036;-82
2023/06/29 10:35:01;;;;;;;2.55;1.65;;;;;;;;;;4956956;29;20028;-82
2023/06/29 10:37:32;;;;;;;2.83;1.80;;;;;;;;;;4933571;29;20082;-82
2023/06/29 10:39:58;;;;;;;4.32;1.67;;;;;;;;;;4941475;29;20051;-82
2023/06/29 10:42:24;;;;;;;2.67;1.52;;;;;;;;;;4942010;29;20043;-82
2023/06/29 10:44:50;;;;;;;4.05;1.90;;;;;;;;;;4941731;29;20030;-85
2023/06/29 10:47:37;;;;;;;3.08;1.60;;;;;;;;;;4941963;29;20035;-81
2023/06/29 10:50:12;;;;;;;3.03;1.85;;;;;;;;;;4922515;29;20030;-83
2023/06/29 10:52:38;;;;;;;4.15;1.60;;;;;;;;;;4922700;29;20024;-82
2023/06/29 10:55:22;;;;;;;3.00;1.50;;;;;;;;;;4922669;29;20386;-81
2023/06/29 10:57:55;;;;;;;5.55;1.92;;;;;;;;;;4922565;29;20471;-83
2023/06/29 11:00:22;;;;;;;2.67;1.75;;;;;;;;;;4934194;29;20019;-82
2023/06/29 11:02:48;;;;;;;2.78;1.50;;;;;;;;;;4928970;29;20067;-81
2023/06/29 11:05:15;;;;;;;4.47;1.70;;;;;;;;;;4948885;29;20054;-83
2023/06/29 11:07:42;;;;;;;1.98;1.65;;;;;;;;;;4940254;28;20466;-81
2023/06/29 11:10:09;;;;;;;4.15;1.55;;;;;;;;;;4940169;29;20020;-86
2023/06/29 11:12:38;;;;;;;2.53;1.50;;;;;;;;;;4955317;28;20478;-84
2023/06/29 11:15:14;;;;;;;2.00;1.30;;;;;;;;;;4940261;28;20043;-84
2023/06/29 11:17:41;;;;;;;2.72;1.40;;;;;;;;;;4940082;29;20031;-82
2023/06/29 11:20:11;;;;;;;3.28;1.55;;;;;;;;;;4939733;28;20070;-84
2023/06/29 11:22:37;;;;;;;2.30;1.40;;;;;;;;;;4945832;29;20378;-85
2023/06/29 11:25:03;;;;;;;2.88;1.42;;;;;;;;;;4954978;28;20035;-84
2023/06/29 11:27:29;;;;;;;2.58;1.40;;;;;;;;;;4939176;29;20028;-80
2023/06/29 11:29:56;;;;;;;3.78;1.70;;;;;;;;;;4948872;28;20035;-80
2023/06/29 11:32:24;;;;;;;3.70;1.50;;;;;;;;;;4953763;28;20162;-79
2023/06/29 11:34:57;;;;;;;2.20;1.40;;;;;;;;;;4953045;28;20035;-80
2023/06/29 11:37:24;;;;;;;3.67;1.50;;;;;;;;;;4947125;28;20063;-80
2023/06/29 11:39:50;;;;;;;3.05;1.60;;;;;;;;;;4941471;28;20566;-81
2023/06/29 11:42:18;;;;;;;3.08;1.50;;;;;;;;;;4968889;28;20086;-78
2023/06/29 11:44:45;;;;;;;2.70;1.65;;;;;;;;;;4937521;28;20501;-80
2023/06/29 11:47:13;;;;;;;2.20;1.30;;;;;;;;;;4936640;29;20130;-84
2023/06/29 11:49:39;;;;;;;1.60;1.20;;;;;;;;;;4949005;28;20119;-81
2023/06/29 11:52:06;;;;;;;2.47;1.27;;;;;;;;;;4936481;29;20051;-86
2023/06/29 11:54:32;;;;;;;2.83;1.40;;;;;;;;;;4936391;28;20028;-85
2023/06/29 11:56:59;;;;;;;1.73;1.30;;;;;;;;;;4951538;28;20024;-84
2023/06/29 11:59:25;;;;;;;2.95;1.40;;;;;;;;;;4935549;28;20119;-83
2023/06/29 12:01:51;;;;;;;4.22;1.60;;;;;;;;;;4935745;28;20032;-84
2023/06/29 12:04:17;;;;;;;3.35;1.50;;;;;;;;;;4931792;28;20048;-86
2023/06/29 12:06:50;;;;;;;4.45;1.30;;;;;;;;;;4936873;29;20394;-83
2023/06/29 12:09:16;;;;;;;4.25;1.33;;;;;;;;;;4948825;28;20470;-82
2023/06/29 12:11:42;;;;;;;4.53;1.40;;;;;;;;;;4970805;28;20051;-79
2023/06/29 12:14:09;;;;;;;2.55;1.33;;;;;;;;;;4946112;28;20154;-83
2023/06/29 12:16:40;;;;;;;3.60;1.30;;;;;;;;;;4939174;29;20022;-87
2023/06/29 12:19:10;;;;;;;4.60;1.40;;;;;;;;;;4959108;28;20536;-80
2023/06/29 12:21:37;;;;;;;3.35;1.45;;;;;;;;;;4949096;28;20059;-80
2023/06/29 12:24:03;;;;;;;3.15;1.48;;;;;;;;;;4944211;29;20031;-81
2023/06/29 12:26:29;;;;;;;3.22;1.50;;;;;;;;;;4947805;29;20035;-80
2023/06/29 12:28:55;;;;;;;4.45;1.50;;;;;;;;;;4950926;29;20023;-85
2023/06/29 12:31:25;;;;;;;3.45;1.40;;;;;;;;;;4946930;29;20043;-86
2023/06/29 12:33:52;;;;;;;2.30;1.20;;;;;;;;;;4944029;29;20091;-90
2023/06/29 12:36:19;;;;;;;5.20;1.67;;;;;;;;;;4936761;29;20040;-89
2023/06/29 12:38:45;;;;;;;3.05;1.63;;;;;;;;;;4936260;29;20182;-81
2023/06/29 12:41:11;;;;;;;3.38;1.35;;;;;;;;;;4935006;29;20716;-86
2023/06/29 12:43:37;;;;;;;3.05;1.50;;;;;;;;;;4951994;28;20434;-86
2023/06/29 12:46:03;;;;;;;4.78;1.50;;;;;;;;;;4937679;28;20443;-83
2023/06/29 12:48:29;;;;;;;3.28;1.50;;;;;;;;;;4936343;29;20488;-88
2023/06/29 12:50:59;;;;;;;4.35;1.60;;;;;;;;;;4936639;28;20086;-84
2023/06/29 12:53:28;;;;;;;4.65;1.60;;;;;;;;;;4950427;28;20047;-82
2023/06/29 12:55:55;;;;;;;5.68;1.88;;;;;;;;;;4937397;29;20028;-82
2023/06/29 12:58:21;;;;;;;1.95;1.45;;;;;;;;;;4952119;29;20039;-83
2023/06/29 13:00:47;;;;;;;1.70;1.40;;;;;;;;;;4937310;29;20415;-84
2023/06/29 13:03:14;;;;;;;5.75;1.52;;;;;;;;;;4936568;29;20035;-82
2023/06/29 13:05:52;;;;;;;2.85;1.30;;;;;;;;;;4938198;29;20042;-84
2023/06/29 13:08:18;;;;;;;3.55;1.40;;;;;;;;;;4946058;29;20031;-82
2023/06/29 13:10:45;;;;;;;2.17;1.30;;;;;;;;;;4929491;28;20066;-84
2023/06/29 13:13:11;;;;;;;2.00;1.33;;;;;;;;;;4933940;29;20036;-82
2023/06/29 13:15:37;;;;;;;5.28;1.98;;;;;;;;;;4942608;28;20035;-82
2023/06/29 13:18:03;;;;;;;2.92;1.38;;;;;;;;;;4943164;29;20039;-79
2023/06/29 13:20:29;;;;;;;4.13;1.67;;;;;;;;;;4944742;29;20114;-83
2023/06/29 13:22:55;;;;;;;2.70;1.70;;;;;;;;;;4950259;29;20489;-83
2023/06/29 13:25:21;;;;;;;3.35;1.40;;;;;;;;;;4938861;28;20530;-83
2023/06/29 13:27:47;;;;;;;4.05;1.50;;;;;;;;;;4946838;29;20493;-80
2023/06/29 13:30:15;;;;;;;2.72;1.52;;;;;;;;;;4942630;28;20493;-83
2023/06/29 13:32:41;;;;;;;3.30;1.50;;;;;;;;;;4945625;29;20135;-79
2023/06/29 13:35:08;;;;;;;2.65;1.50;;;;;;;;;;4943428;29;20040;-83
2023/06/29 13:37:34;;;;;;;3.83;1.50;;;;;;;;;;4944574;29;20034;-80
2023/06/29 13:40:00;;;;;;;3.20;1.70;;;;;;;;;;4943990;29;20131;-80
2023/06/29 13:42:26;;;;;;;2.30;1.40;;;;;;;;;;4936723;29;20036;-84
2023/06/29 13:44:52;;;;;;;4.28;1.70;;;;;;;;;;4933545;29;20039;-85
2023/06/29 13:47:19;;;;;;;5.75;1.83;;;;;;;;;;4932147;29;20414;-78
2023/06/29 13:49:46;;;;;;;3.08;1.40;;;;;;;;;;4941907;28;20042;-81
2023/06/29 13:52:12;;;;;;;4.50;1.70;;;794.10;1280.00;;;;;;4954332;29;20055;-82
2023/06/29 13:54:38;;;;;;;2.67;1.40;;;793.90;1280.00;;;;;;4945082;28;20513;-84
2023/06/29 13:57:05;;;;;;;2.85;1.40;;;;;;;;;;4945446;29;20079;-81
2023/06/29 13:59:31;;;;;;;2.88;1.50;;;;;;;;;;4945407;29;20031;-81
2023/06/29 14:01:57;;;;;;;3.65;1.40;;;794.50;1254.40;;;;;;4945119;29;20094;-84
2023/06/29 14:04:24;;;;;;;3.22;1.50;;;794.30;1254.40;;;;;;4962932;28;20118;-81
2023/06/29 14:06:50;;;;;;;4.30;1.77;;;794.50;1280.00;;;;;;4947577;28;20049;-80
2023/06/29 14:09:16;;;;;;;4.47;1.60;;;794.30;1254.40;;;;;;4935152;29;20020;-80
2023/06/29 14:11:42;;;;;;;1.95;1.40;;;;;;;;;;4944098;28;20042;-83
2023/06/29 14:14:09;;;;;;;1.77;1.40;;;;;;;;;;4938481;29;20024;-83
2023/06/29 14:16:35;;;;;;;4.10;1.57;;;;;;;;;;4933810;28;20027;-82
2023/06/29 14:19:02;;;;;;;5.60;1.63;;;;;;;;;;4940621;29;20097;-79